createdAt,value
2018-03-22T00:00:01.022Z,7.43
2018-03-22T00:02:29.315Z,7.70
2018-03-22T00:04:58.384Z,7.37
2018-03-22T00:07:26.811Z,7.17
2018-03-22T00:09:55.225Z,7.80
2018-03-22T00:12:24.427Z,6.30
2018-03-22T00:14:52.745Z,7.07
2018-03-22T00:17:21.173Z,7.20
2018-03-22T00:19:49.670Z,7.50
2018-03-22T00:22:29.870Z,6.83
2018-03-22T00:24:58.170Z,7.70
2018-03-22T00:27:26.560Z,7.50
2018-03-22T00:29:54.939Z,6.80
2018-03-22T00:32:25.179Z,7.20
2018-03-22T00:34:56.961Z,6.63
2018-03-22T00:37:25.491Z,7.53
2018-03-22T00:39:54.209Z,7.23
2018-03-22T00:42:22.518Z,7.83
2018-03-22T00:44:50.875Z,7.37
2018-03-22T00:47:19.234Z,6.97
2018-03-22T00:49:49.344Z,7.43
2018-03-22T00:52:19.496Z,7.33
2018-03-22T00:54:47.854Z,6.80
2018-03-22T00:57:16.207Z,7.10
2018-03-22T00:59:44.586Z,7.63
2018-03-22T01:02:15.547Z,6.63
2018-03-22T01:04:44.111Z,6.97
2018-03-22T01:07:14.123Z,7.20
2018-03-22T01:09:44.334Z,6.50
2018-03-22T01:12:14.690Z,7.60
2018-03-22T01:14:47.170Z,7.47
2018-03-22T01:17:15.617Z,6.60
2018-03-22T01:19:43.910Z,7.03
2018-03-22T01:22:12.285Z,7.30
2018-03-22T01:24:41.499Z,6.80
2018-03-22T01:27:12.920Z,6.40
2018-03-22T01:29:42.454Z,6.40
2018-03-22T01:32:11.068Z,7.20
2018-03-22T01:34:39.386Z,6.70
2018-03-22T01:37:07.828Z,7.00
2018-03-22T01:39:38.904Z,7.50
2018-03-22T01:42:07.706Z,7.80
2018-03-22T01:44:36.107Z,6.03
2018-03-22T01:47:04.518Z,6.60
2018-03-22T01:49:32.912Z,6.93
2018-03-22T01:52:04.449Z,7.30
2018-03-22T01:54:33.128Z,7.80
2018-03-22T01:57:01.426Z,6.63
2018-03-22T01:59:29.776Z,7.80
2018-03-22T02:01:58.314Z,6.87
2018-03-22T02:04:29.224Z,7.17
2018-03-22T02:06:57.656Z,7.20
2018-03-22T02:09:26.101Z,8.00
2018-03-22T02:11:54.520Z,6.83
2018-03-22T02:14:23.100Z,8.13
2018-03-22T02:16:59.009Z,8.20
2018-03-22T02:19:27.326Z,7.70
2018-03-22T02:21:55.689Z,8.10
2018-03-22T02:24:24.015Z,8.33
2018-03-22T02:26:52.404Z,7.80
2018-03-22T02:29:20.723Z,7.47
2018-03-22T02:31:49.223Z,8.27
2018-03-22T02:34:17.710Z,8.87
2018-03-22T02:36:47.623Z,8.47
2018-03-22T02:39:16.116Z,8.47
2018-03-22T02:41:46.011Z,7.90
2018-03-22T02:44:14.388Z,9.37
2018-03-22T02:46:46.759Z,9.63
2018-03-22T02:49:15.362Z,9.70
2018-03-22T02:51:43.723Z,10.37
2018-03-22T02:54:16.811Z,10.50
2018-03-22T02:56:45.398Z,8.60
2018-03-22T02:59:14.493Z,9.40
2018-03-22T03:01:44.713Z,9.13
2018-03-22T03:04:13.209Z,9.10
2018-03-22T03:06:41.595Z,10.13
2018-03-22T03:09:09.966Z,10.50
2018-03-22T03:11:38.349Z,8.80
2018-03-22T03:14:06.824Z,9.20
2018-03-22T03:16:37.454Z,8.50
2018-03-22T03:19:06.422Z,9.87
2018-03-22T03:21:35.505Z,9.50
2018-03-22T03:24:03.907Z,9.23
2018-03-22T03:26:32.442Z,9.00
2018-03-22T03:29:01.546Z,8.63
2018-03-22T03:31:29.888Z,9.63
2018-03-22T03:34:01.113Z,9.40
2018-03-22T03:36:29.610Z,9.10
2018-03-22T03:38:58.125Z,9.93
2018-03-22T03:41:27.353Z,9.07
2018-03-22T03:43:55.962Z,10.17
2018-03-22T03:46:26.080Z,9.63
2018-03-22T03:48:56.043Z,9.03
2018-03-22T03:51:24.469Z,9.60
2018-03-22T03:53:54.574Z,9.30
2018-03-22T03:56:22.967Z,9.20
2018-03-22T03:58:52.081Z,9.77
2018-03-22T04:01:20.506Z,9.00
2018-03-22T04:03:51.658Z,9.80
2018-03-22T04:06:20.748Z,10.03
2018-03-22T04:08:49.896Z,9.73
2018-03-22T04:11:18.234Z,10.77
2018-03-22T04:13:46.615Z,10.63
2018-03-22T04:16:15.207Z,10.80
2018-03-22T04:18:44.711Z,12.77
2018-03-22T04:21:13.316Z,11.60
2018-03-22T04:23:41.901Z,11.10
2018-03-22T04:26:12.164Z,11.63
2018-03-22T04:28:41.426Z,10.70
2018-03-22T04:31:13.854Z,10.67
2018-03-22T04:33:42.392Z,11.20
2018-03-22T04:36:11.271Z,10.40
2018-03-22T04:38:39.647Z,10.53
2018-03-22T04:41:08.733Z,10.93
2018-03-22T04:43:37.272Z,10.73
2018-03-22T04:46:05.772Z,11.03
2018-03-22T04:48:34.306Z,11.40
2018-03-22T04:51:05.478Z,11.27
2018-03-22T04:53:34.117Z,11.77
2018-03-22T04:56:02.612Z,11.90
2018-03-22T04:58:31.206Z,10.50
2018-03-22T05:00:59.680Z,11.10
2018-03-22T05:03:28.458Z,11.80
2018-03-22T05:05:57.028Z,10.87
2018-03-22T05:08:27.604Z,11.73
2018-03-22T05:10:58.822Z,12.33
2018-03-22T05:13:30.290Z,11.13
2018-03-22T05:16:00.603Z,11.40
2018-03-22T05:18:33.217Z,11.63
2018-03-22T05:21:03.359Z,11.37
2018-03-22T05:23:33.476Z,12.20
2018-03-22T05:26:01.966Z,11.57
2018-03-22T05:28:31.283Z,12.83
2018-03-22T05:31:00.412Z,11.73
2018-03-22T05:33:28.896Z,11.37
2018-03-22T05:35:59.399Z,12.10
2018-03-22T05:38:32.815Z,11.60
2018-03-22T05:41:03.020Z,11.83
2018-03-22T05:43:32.745Z,12.30
2018-03-22T05:46:02.970Z,11.10
2018-03-22T05:48:31.501Z,12.10
2018-03-22T05:51:01.677Z,13.23
2018-03-22T05:53:30.089Z,12.13
2018-03-22T05:55:58.607Z,12.53
2018-03-22T05:58:26.958Z,13.43
2018-03-22T06:00:59.000Z,13.40
2018-03-22T06:03:27.629Z,13.57
2018-03-22T06:05:56.018Z,14.70
2018-03-22T06:08:27.520Z,14.20
2018-03-22T06:10:55.955Z,11.80
2018-03-22T06:13:24.423Z,12.57
2018-03-22T06:15:52.809Z,14.43
2018-03-22T06:18:23.025Z,12.70
2018-03-22T06:20:56.417Z,14.00
2018-03-22T06:23:24.895Z,12.90
2018-03-22T06:25:53.557Z,13.70
2018-03-22T06:28:22.068Z,12.73
2018-03-22T06:30:50.603Z,12.50
2018-03-22T06:33:19.083Z,12.50
2018-03-22T06:35:49.239Z,12.70
2018-03-22T06:38:17.670Z,14.40
2018-03-22T06:40:46.168Z,12.07
2018-03-22T06:43:14.549Z,13.60
2018-03-22T06:45:45.121Z,13.03
2018-03-22T06:48:15.247Z,13.00
2018-03-22T06:50:47.179Z,13.00
2018-03-22T06:53:15.608Z,13.07
2018-03-22T06:55:44.190Z,12.53
2018-03-22T06:58:12.621Z,13.13
2018-03-22T07:00:41.003Z,13.50
2018-03-22T07:03:09.322Z,13.00
2018-03-22T07:05:37.677Z,12.93
2018-03-22T07:08:06.931Z,11.80
2018-03-22T07:10:36.867Z,12.80
2018-03-22T07:13:05.213Z,13.80
2018-03-22T07:15:33.523Z,11.80
2018-03-22T07:18:01.940Z,12.93
2018-03-22T07:20:30.419Z,12.80
2018-03-22T07:22:58.819Z,12.67
2018-03-22T07:25:27.273Z,12.60
2018-03-22T07:27:55.612Z,11.57
2018-03-22T07:30:24.172Z,12.17
2018-03-22T07:32:54.265Z,12.70
2018-03-22T07:35:22.807Z,13.03
2018-03-22T07:37:53.361Z,13.13
2018-03-22T07:40:21.776Z,12.47
2018-03-22T07:42:55.825Z,11.70
2018-03-22T07:45:26.299Z,10.87
2018-03-22T07:47:54.791Z,11.83
2018-03-22T07:50:23.101Z,10.40
2018-03-22T07:52:51.545Z,12.37
2018-03-22T07:55:19.968Z,12.47
2018-03-22T07:57:50.384Z,12.00
2018-03-22T08:00:20.913Z,11.17
2018-03-22T08:02:49.334Z,12.07
2018-03-22T08:05:17.781Z,11.80
2018-03-22T08:07:47.890Z,12.10
2018-03-22T08:10:16.271Z,12.07
2018-03-22T08:12:44.657Z,11.80
2018-03-22T08:15:13.068Z,12.33
2018-03-22T08:17:41.613Z,11.83
2018-03-22T08:20:10.217Z,11.77
2018-03-22T08:22:38.601Z,10.50
2018-03-22T08:25:06.941Z,11.50
2018-03-22T08:27:35.330Z,10.13
2018-03-22T08:30:03.871Z,10.90
2018-03-22T08:32:32.321Z,11.07
2018-03-22T08:35:00.709Z,9.73
2018-03-22T08:37:29.025Z,10.23
2018-03-22T08:39:57.460Z,10.70
2018-03-22T08:42:25.840Z,9.90
2018-03-22T08:44:54.270Z,9.53
2018-03-22T08:47:21.941Z,9.53
2018-03-22T08:49:52.264Z,9.90
2018-03-22T08:52:21.834Z,10.73
2018-03-22T08:54:50.327Z,9.90
2018-03-22T08:57:20.736Z,9.83
2018-03-22T08:59:49.803Z,9.70
2018-03-22T09:02:18.271Z,9.83
2018-03-22T09:04:46.576Z,9.60
2018-03-22T09:07:15.712Z,10.10
2018-03-22T09:09:44.070Z,10.00
2018-03-22T09:12:12.574Z,9.00
2018-03-22T09:14:41.139Z,9.80
2018-03-22T09:17:12.286Z,9.83
2018-03-22T09:19:42.780Z,9.73
2018-03-22T09:22:13.524Z,9.07
2018-03-22T09:24:42.050Z,9.30
2018-03-22T09:27:10.339Z,8.60
2018-03-22T09:29:38.648Z,9.10
2018-03-22T09:32:06.960Z,8.70
2018-03-22T09:34:35.258Z,9.00
2018-03-22T09:37:03.620Z,9.53
2018-03-22T09:39:32.049Z,8.00
2018-03-22T09:42:00.365Z,8.77
2018-03-22T09:44:28.686Z,9.13
2018-03-22T09:46:57.092Z,8.60
2018-03-22T09:49:25.636Z,8.70
2018-03-22T09:51:53.991Z,8.50
2018-03-22T09:54:22.331Z,7.90
2018-03-22T09:56:50.839Z,8.50
2018-03-22T09:59:19.281Z,8.23
2018-03-22T10:01:47.829Z,8.60
2018-03-22T10:04:17.136Z,8.83
2018-03-22T10:06:45.566Z,9.07
2018-03-22T10:09:14.104Z,8.80
2018-03-22T10:11:43.507Z,7.70
2018-03-22T10:14:11.882Z,7.00
2018-03-22T10:16:40.982Z,7.70
2018-03-22T10:19:09.326Z,8.10
2018-03-22T10:21:39.225Z,8.60
2018-03-22T10:24:09.909Z,7.53
2018-03-22T10:26:39.999Z,8.10
2018-03-22T10:29:08.445Z,8.80
2018-03-22T10:31:37.907Z,8.37
2018-03-22T10:34:09.117Z,9.30
2018-03-22T10:36:37.588Z,9.07
2018-03-22T10:39:06.015Z,8.47
2018-03-22T10:41:34.612Z,8.20
2018-03-22T10:44:02.882Z,7.20
2018-03-22T10:46:31.206Z,7.50
2018-03-22T10:49:01.387Z,6.40
2018-03-22T10:51:29.765Z,6.13
2018-03-22T10:53:58.335Z,6.53
2018-03-22T10:56:26.657Z,5.70
2018-03-22T10:58:55.661Z,6.03
2018-03-22T11:01:29.752Z,5.70
2018-03-22T11:03:58.423Z,6.20
2018-03-22T11:06:27.566Z,5.50
2018-03-22T11:08:55.906Z,5.40
2018-03-22T11:11:24.258Z,5.27
2018-03-22T11:13:52.575Z,6.20
2018-03-22T11:16:20.931Z,6.30
2018-03-22T11:18:49.320Z,6.40
2018-03-22T11:21:17.684Z,6.30
2018-03-22T11:23:46.025Z,5.20
2018-03-22T11:26:14.408Z,5.27
2018-03-22T11:28:44.577Z,5.30
2018-03-22T11:31:14.547Z,5.00
2018-03-22T11:33:43.019Z,5.20
2018-03-22T11:36:12.044Z,5.07
2018-03-22T11:38:40.353Z,4.83
2018-03-22T11:41:08.741Z,5.57
2018-03-22T11:43:37.054Z,5.17
2018-03-22T11:46:05.391Z,6.63
2018-03-22T11:48:33.847Z,6.47
2018-03-22T11:51:02.121Z,5.30
2018-03-22T11:53:33.388Z,5.10
2018-03-22T11:56:05.669Z,5.43
2018-03-22T11:58:36.506Z,5.47
2018-03-22T12:01:04.970Z,5.43
2018-03-22T12:03:33.316Z,5.53
2018-03-22T12:06:01.627Z,5.70
2018-03-22T12:08:30.118Z,5.27
2018-03-22T12:10:58.469Z,5.50
2018-03-22T12:13:27.802Z,5.70
2018-03-22T12:15:58.967Z,5.87
2018-03-22T12:18:27.312Z,4.80
2018-03-22T12:20:56.725Z,5.77
2018-03-22T12:23:25.035Z,4.77
2018-03-22T12:25:53.385Z,5.30
2018-03-22T12:28:21.808Z,4.90
2018-03-22T12:30:50.121Z,4.87
2018-03-22T12:33:19.563Z,5.70
2018-03-22T12:35:48.634Z,5.27
2018-03-22T12:38:17.000Z,5.47
2018-03-22T12:40:46.123Z,5.00
2018-03-22T12:43:14.604Z,5.43
2018-03-22T12:45:42.922Z,5.83
2018-03-22T12:48:14.067Z,5.23
2018-03-22T12:50:42.458Z,5.97
2018-03-22T12:53:13.406Z,5.57
2018-03-22T12:55:41.793Z,5.77
2018-03-22T12:58:10.145Z,5.97
2018-03-22T13:00:40.294Z,6.27
2018-03-22T13:03:09.904Z,5.30
2018-03-22T13:05:39.961Z,6.00
2018-03-22T13:08:08.744Z,5.80
2018-03-22T13:10:37.195Z,6.13
2018-03-22T13:13:05.591Z,6.20
2018-03-22T13:15:36.685Z,5.93
2018-03-22T13:18:06.683Z,5.77
2018-03-22T13:20:35.064Z,6.03
2018-03-22T13:23:03.495Z,6.10
2018-03-22T13:25:34.529Z,6.20
2018-03-22T13:28:04.240Z,5.80
2018-03-22T13:30:34.151Z,7.27
2018-03-22T13:33:02.574Z,6.70
2018-03-22T13:35:30.991Z,6.57
2018-03-22T13:37:59.371Z,6.73
2018-03-22T13:40:28.591Z,7.77
2018-03-22T13:42:57.687Z,6.20
2018-03-22T13:45:27.797Z,6.70
2018-03-22T13:47:56.157Z,6.47
2018-03-22T13:50:24.702Z,6.30
2018-03-22T13:52:53.759Z,6.23
2018-03-22T13:55:22.288Z,6.40
2018-03-22T13:57:51.357Z,5.57
2018-03-22T14:00:20.990Z,6.50
2018-03-22T14:02:49.365Z,6.03
2018-03-22T14:05:17.722Z,5.90
2018-03-22T14:07:46.048Z,5.83
2018-03-22T14:10:14.350Z,5.60
2018-03-22T14:12:42.995Z,6.20
2018-03-22T14:15:11.341Z,5.40
2018-03-22T14:17:39.750Z,5.77
2018-03-22T14:20:11.423Z,6.07
2018-03-22T14:22:40.927Z,6.30
2018-03-22T14:25:09.248Z,5.93
2018-03-22T14:27:37.528Z,5.87
2018-03-22T14:30:08.695Z,6.47
2018-03-22T14:32:38.690Z,6.07
2018-03-22T14:35:07.157Z,6.90
2018-03-22T14:37:35.619Z,6.40
2018-03-22T14:40:05.866Z,6.07
2018-03-22T14:42:36.024Z,5.07
2018-03-22T14:45:04.515Z,5.53
2018-03-22T14:47:32.837Z,5.73
2018-03-22T14:50:01.282Z,5.50
2018-03-22T14:52:29.674Z,5.73
2018-03-22T14:54:59.207Z,5.87
2018-03-22T14:57:27.543Z,6.20
2018-03-22T14:59:57.605Z,6.10
2018-03-22T15:02:26.077Z,5.70
2018-03-22T15:04:54.405Z,5.97
2018-03-22T15:07:22.764Z,5.80
2018-03-22T15:09:52.116Z,5.90
2018-03-22T15:12:20.446Z,5.27
2018-03-22T15:14:48.776Z,6.40
2018-03-22T15:17:19.744Z,6.60
2018-03-22T15:19:48.248Z,4.10
2018-03-22T15:22:18.242Z,4.67
2018-03-22T15:24:46.615Z,4.70
2018-03-22T15:27:14.937Z,5.20
2018-03-22T15:29:45.370Z,5.43
2018-03-22T15:32:13.727Z,5.47
2018-03-22T15:34:43.696Z,5.70
2018-03-22T15:46:57.190Z,6.07
2018-03-22T15:49:25.642Z,5.40
2018-03-22T15:51:53.952Z,6.30
2018-03-22T15:54:23.283Z,5.57
2018-03-22T15:56:51.628Z,4.97
2018-03-22T15:59:20.717Z,5.30
2018-03-22T16:01:49.059Z,4.80
2018-03-22T16:04:19.896Z,4.70
2018-03-22T16:06:48.316Z,4.70
2018-03-22T16:09:18.347Z,5.87
2018-03-22T16:11:46.715Z,5.53
2018-03-22T16:14:15.302Z,5.70
2018-03-22T16:16:43.657Z,8.97
2018-03-22T16:19:11.997Z,8.10
2018-03-22T16:21:40.368Z,6.40
2018-03-22T16:24:08.850Z,5.87
2018-03-22T16:26:40.080Z,5.90
2018-03-22T16:29:10.192Z,6.37
2018-03-22T16:31:39.597Z,5.70
2018-03-22T16:34:08.162Z,5.80
2018-03-22T16:36:36.593Z,5.90
2018-03-22T16:39:05.082Z,7.63
2018-03-22T16:41:33.759Z,6.23
2018-03-22T16:44:02.216Z,6.47
2018-03-22T16:46:31.638Z,5.70
2018-03-22T16:49:01.023Z,6.60
2018-03-22T16:51:31.050Z,7.00
2018-03-22T16:53:59.480Z,6.77
2018-03-22T16:56:27.810Z,5.73
2018-03-22T16:58:56.176Z,6.87
2018-03-22T17:01:24.665Z,6.30
2018-03-22T17:03:53.787Z,7.17
2018-03-22T17:06:24.637Z,7.00
2018-03-22T17:08:53.421Z,6.77
2018-03-22T17:11:23.058Z,6.30
2018-03-22T17:13:51.507Z,6.73
2018-03-22T17:16:21.528Z,6.90
2018-03-22T17:18:51.588Z,6.37
2018-03-22T17:21:22.618Z,6.97
2018-03-22T17:23:52.677Z,8.23
2018-03-22T17:26:21.525Z,6.37
2018-03-22T17:28:49.919Z,6.67
2018-03-22T17:31:18.275Z,6.90
2018-03-22T17:33:48.853Z,6.80
2018-03-22T17:36:17.406Z,7.63
2018-03-22T17:38:46.691Z,7.53
2018-03-22T17:41:16.227Z,7.73
2018-03-22T17:43:44.648Z,7.70
2018-03-22T17:46:13.195Z,7.87
2018-03-22T17:48:41.674Z,8.20
2018-03-22T17:51:10.120Z,8.07
2018-03-22T17:53:39.872Z,8.67
2018-03-22T17:56:10.213Z,7.30
2018-03-22T17:58:38.622Z,8.77
2018-03-22T18:01:07.270Z,8.00
2018-03-22T18:03:37.419Z,8.00
2018-03-22T18:06:08.016Z,9.10
2018-03-22T18:08:38.979Z,8.70
2018-03-22T18:11:08.307Z,9.27
2018-03-22T18:13:36.890Z,8.60
2018-03-22T18:16:06.260Z,8.67
2018-03-22T18:18:34.668Z,9.00
2018-03-22T18:21:03.433Z,9.67
2018-03-22T18:23:33.505Z,8.87
2018-03-22T18:26:01.889Z,9.17
2018-03-22T18:28:32.399Z,8.43
2018-03-22T18:31:01.691Z,9.33
2018-03-22T18:33:30.251Z,9.40
2018-03-22T18:35:58.652Z,9.90
2018-03-22T18:38:27.061Z,9.53
2018-03-22T18:40:57.600Z,9.80
2018-03-22T18:43:26.001Z,8.53
2018-03-22T18:45:56.297Z,9.33
2018-03-22T18:48:27.199Z,10.67
2018-03-22T18:50:56.539Z,10.73
2018-03-22T18:53:25.821Z,10.63
2018-03-22T18:55:56.813Z,10.60
2018-03-22T18:58:25.368Z,10.23
2018-03-22T19:00:53.766Z,9.90
2018-03-22T19:03:22.256Z,9.70
2018-03-22T19:05:50.791Z,9.70
2018-03-22T19:08:19.309Z,9.87
2018-03-22T19:10:48.404Z,10.13
2018-03-22T19:13:16.852Z,9.60
2018-03-22T19:15:46.316Z,9.70
2018-03-22T19:18:14.772Z,10.00
2018-03-22T19:20:43.540Z,10.33
2018-03-22T19:23:14.618Z,10.30
2018-03-22T19:25:44.881Z,10.50
2018-03-22T19:28:15.791Z,11.80
2018-03-22T19:30:44.189Z,12.40
2018-03-22T19:33:14.355Z,12.70
2018-03-22T19:35:42.789Z,11.50
2018-03-22T19:38:11.460Z,10.97
2018-03-22T19:40:39.925Z,11.07
2018-03-22T19:43:10.476Z,10.83
2018-03-22T19:45:41.228Z,10.87
2018-03-22T20:01:12.581Z,10.47
2018-03-22T20:03:42.822Z,11.20
2018-03-22T20:06:11.266Z,11.03
2018-03-22T20:08:39.954Z,11.30
2018-03-22T20:11:08.453Z,12.70
2018-03-22T20:13:38.133Z,11.20
2018-03-22T20:16:06.605Z,12.10
2018-03-22T20:18:36.011Z,10.40
2018-03-22T20:21:04.710Z,11.13
2018-03-22T20:23:35.745Z,12.67
2018-03-22T20:26:04.314Z,11.10
2018-03-22T20:28:34.284Z,12.23
2018-03-22T20:31:04.365Z,11.37
2018-03-22T20:33:35.725Z,11.53
2018-03-22T20:36:04.101Z,12.70
2018-03-22T20:38:32.493Z,12.10
2018-03-22T20:41:01.032Z,12.97
2018-03-22T20:43:29.417Z,12.10
2018-03-22T20:45:58.180Z,12.43
2018-03-22T20:48:28.409Z,12.73
2018-03-22T20:50:56.886Z,13.80
2018-03-22T20:53:25.461Z,12.87
2018-03-22T20:55:53.908Z,13.77
2018-03-22T20:58:24.593Z,12.53
2018-03-22T21:00:54.113Z,13.63
2018-03-22T21:03:22.684Z,13.90
2018-03-22T21:05:51.253Z,13.67
2018-03-22T21:08:19.744Z,13.07
2018-03-22T21:10:50.954Z,13.80
2018-03-22T21:13:20.370Z,13.90
2018-03-22T21:15:50.522Z,14.30
2018-03-22T21:18:19.600Z,13.43
2018-03-22T21:20:48.155Z,13.50
2018-03-22T21:23:18.235Z,13.30
2018-03-22T21:25:47.018Z,12.97
2018-03-22T21:28:15.808Z,14.07
2018-03-22T21:30:46.234Z,14.30
2018-03-22T21:33:16.298Z,13.37
2018-03-22T21:35:44.665Z,14.30
2018-03-22T21:38:13.313Z,14.50
2018-03-22T21:40:43.644Z,13.13
2018-03-22T21:43:12.190Z,14.33
2018-03-22T21:45:40.851Z,14.63
2018-03-22T21:48:09.346Z,14.07
2018-03-22T21:50:50.247Z,14.23
2018-03-22T21:53:20.507Z,14.40
2018-03-22T21:55:51.574Z,12.83
2018-03-22T21:58:20.404Z,14.57
2018-03-22T22:00:48.754Z,13.80
2018-03-22T22:03:18.653Z,13.93
2018-03-22T22:05:47.213Z,13.97
2018-03-22T22:08:16.303Z,15.07
2018-03-22T22:10:44.846Z,15.53
2018-03-22T22:13:15.052Z,14.43
2018-03-22T22:15:43.479Z,13.10
2018-03-22T22:18:11.802Z,13.90
2018-03-22T22:20:40.202Z,14.30
2018-03-22T22:23:08.555Z,15.00
2018-03-22T22:25:37.747Z,13.93
2018-03-22T22:28:06.102Z,12.80
2018-03-22T22:30:37.494Z,14.70
2018-03-22T22:33:06.061Z,15.60
2018-03-22T22:35:34.387Z,15.27
2018-03-22T22:38:02.744Z,14.57
2018-03-22T22:40:31.062Z,15.10
2018-03-22T22:42:59.490Z,13.80
2018-03-22T22:45:27.952Z,14.80
2018-03-22T22:47:56.388Z,13.83
2018-03-22T22:50:26.325Z,13.63
2018-03-22T22:52:56.598Z,15.10
2018-03-22T22:55:25.971Z,14.10
2018-03-22T22:57:54.339Z,14.00
2018-03-22T23:00:22.664Z,15.53
2018-03-22T23:02:51.169Z,16.00
2018-03-22T23:05:19.533Z,15.43
2018-03-22T23:07:48.168Z,13.53
2018-03-22T23:10:16.510Z,13.70
2018-03-22T23:12:44.888Z,14.80
2018-03-22T23:15:13.345Z,15.60
2018-03-22T23:17:43.944Z,14.77
2018-03-22T23:20:12.301Z,14.70
2018-03-22T23:22:40.634Z,15.40
2018-03-22T23:25:09.078Z,15.17
2018-03-22T23:27:38.565Z,15.10
2018-03-22T23:30:08.707Z,15.60
2018-03-22T23:32:37.221Z,14.77
2018-03-22T23:35:05.727Z,14.90
2018-03-22T23:37:34.142Z,15.93
2018-03-22T23:40:02.592Z,14.70
2018-03-22T23:42:30.934Z,15.63
2018-03-22T23:44:59.225Z,15.53
2018-03-22T23:47:27.550Z,15.37
2018-03-22T23:49:55.870Z,15.30
2018-03-22T23:52:24.239Z,15.77
2018-03-22T23:54:52.517Z,16.07
2018-03-22T23:57:20.873Z,15.40
2018-03-22T23:59:49.160Z,15.77
